Abbeville, Georgia
Current Conditions -  °F | °C
As of 9:55 PM on Friday 31 Oct 2014 (Local Time) from KEZM Reporting Station
Clear Clear  
Wind Chill: 57°   Ceiling: Unl
Heat Index: 57°   Visibility: 10mi
Dew Point: 45°   Wind: 3mph
Humidity: 64%   Direction: 300°WNW
Pressure: 29.91"   Gusts: NA
Location:  31.99°N, 83.31°W
Report Text: KEZM 010155Z AUTO 30003KT 10SM CLR 14/07 A2991 RMK AO2 T01380070
Loading
Personal Weather Stations






























Interactive Weather Map
Tropical Storm Tracking
New forecast layout! Learn more

10-Day Weather Forecast

Advertisements
Track Severe Weather on mobile